sensor_id;sensor_type;location;lat;lon;timestamp;P1;durP1;ratioP1;P2;durP2;ratioP2
14858;SDS011;7521;51.700;6.874;2023-04-07T00:00:34;19.03;;;16.57;;
14858;SDS011;7521;51.700;6.874;2023-04-07T00:03:39;18.83;;;16.43;;
14858;SDS011;7521;51.700;6.874;2023-04-07T00:06:45;21.27;;;17.87;;
14858;SDS011;7521;51.700;6.874;2023-04-07T00:09:50;18.15;;;16.10;;
14858;SDS011;7521;51.700;6.874;2023-04-07T00:12:55;19.50;;;17.40;;
14858;SDS011;7521;51.700;6.874;2023-04-07T00:16:00;22.55;;;17.70;;
14858;SDS011;7521;51.700;6.874;2023-04-07T00:19:06;19.75;;;17.70;;
14858;SDS011;7521;51.700;6.874;2023-04-07T00:22:11;19.85;;;17.48;;
14858;SDS011;7521;51.700;6.874;2023-04-07T00:25:16;18.70;;;16.73;;
14858;SDS011;7521;51.700;6.874;2023-04-07T00:28:21;18.47;;;16.30;;
14858;SDS011;7521;51.700;6.874;2023-04-07T00:31:26;20.13;;;18.03;;
14858;SDS011;7521;51.700;6.874;2023-04-07T00:34:32;19.88;;;17.45;;
14858;SDS011;7521;51.700;6.874;2023-04-07T00:37:37;22.70;;;17.98;;
14858;SDS011;7521;51.700;6.874;2023-04-07T00:40:42;20.77;;;18.52;;
14858;SDS011;7521;51.700;6.874;2023-04-07T00:43:48;23.15;;;19.48;;
14858;SDS011;7521;51.700;6.874;2023-04-07T00:46:53;22.97;;;19.77;;
14858;SDS011;7521;51.700;6.874;2023-04-07T00:49:59;21.17;;;18.90;;
14858;SDS011;7521;51.700;6.874;2023-04-07T00:53:04;23.38;;;20.33;;
14858;SDS011;7521;51.700;6.874;2023-04-07T00:56:09;23.20;;;20.47;;
14858;SDS011;7521;51.700;6.874;2023-04-07T00:59:14;22.70;;;19.90;;
14858;SDS011;7521;51.700;6.874;2023-04-07T01:02:21;23.97;;;20.30;;
14858;SDS011;7521;51.700;6.874;2023-04-07T01:05:32;22.63;;;19.97;;
14858;SDS011;7521;51.700;6.874;2023-04-07T01:11:56;26.97;;;21.97;;
14858;SDS011;7521;51.700;6.874;2023-04-07T01:15:05;25.30;;;22.17;;
14858;SDS011;7521;51.700;6.874;2023-04-07T01:18:12;25.67;;;21.27;;
14858;SDS011;7521;51.700;6.874;2023-04-07T01:21:19;25.47;;;22.33;;
14858;SDS011;7521;51.700;6.874;2023-04-07T01:24:33;25.80;;;21.47;;
14858;SDS011;7521;51.700;6.874;2023-04-07T01:27:54;26.17;;;21.83;;
14858;SDS011;7521;51.700;6.874;2023-04-07T01:31:03;27.20;;;23.80;;
14858;SDS011;7521;51.700;6.874;2023-04-07T01:34:09;25.00;;;20.67;;
14858;SDS011;7521;51.700;6.874;2023-04-07T01:37:14;29.63;;;24.33;;
14858;SDS011;7521;51.700;6.874;2023-04-07T01:40:20;29.63;;;24.43;;
14858;SDS011;7521;51.700;6.874;2023-04-07T01:43:29;28.17;;;23.37;;
14858;SDS011;7521;51.700;6.874;2023-04-07T01:46:34;30.53;;;25.47;;
14858;SDS011;7521;51.700;6.874;2023-04-07T01:49:40;28.10;;;24.47;;
14858;SDS011;7521;51.700;6.874;2023-04-07T01:52:45;35.63;;;27.77;;
14858;SDS011;7521;51.700;6.874;2023-04-07T01:55:51;37.10;;;28.63;;
14858;SDS011;7521;51.700;6.874;2023-04-07T01:58:57;36.07;;;27.67;;
14858;SDS011;7521;51.700;6.874;2023-04-07T02:02:02;36.65;;;27.77;;
14858;SDS011;7521;51.700;6.874;2023-04-07T02:05:08;36.17;;;28.13;;
14858;SDS011;7521;51.700;6.874;2023-04-07T02:08:17;39.20;;;29.67;;
14858;SDS011;7521;51.700;6.874;2023-04-07T02:11:24;36.40;;;28.77;;
14858;SDS011;7521;51.700;6.874;2023-04-07T02:14:30;39.10;;;29.50;;
14858;SDS011;7521;51.700;6.874;2023-04-07T02:17:36;39.33;;;30.43;;
14858;SDS011;7521;51.700;6.874;2023-04-07T02:20:43;45.27;;;33.40;;
14858;SDS011;7521;51.700;6.874;2023-04-07T02:23:48;47.70;;;34.63;;
14858;SDS011;7521;51.700;6.874;2023-04-07T02:26:54;47.03;;;32.47;;
14858;SDS011;7521;51.700;6.874;2023-04-07T02:30:00;44.40;;;32.67;;
14858;SDS011;7521;51.700;6.874;2023-04-07T02:33:05;42.38;;;33.20;;
14858;SDS011;7521;51.700;6.874;2023-04-07T02:36:10;47.42;;;34.50;;
14858;SDS011;7521;51.700;6.874;2023-04-07T02:39:15;47.63;;;34.55;;
14858;SDS011;7521;51.700;6.874;2023-04-07T02:42:20;45.53;;;33.85;;
14858;SDS011;7521;51.700;6.874;2023-04-07T02:45:26;48.40;;;34.90;;
14858;SDS011;7521;51.700;6.874;2023-04-07T02:48:31;52.75;;;35.92;;
14858;SDS011;7521;51.700;6.874;2023-04-07T02:51:36;47.83;;;35.30;;
14858;SDS011;7521;51.700;6.874;2023-04-07T02:54:41;51.78;;;35.92;;
14858;SDS011;7521;51.700;6.874;2023-04-07T02:57:46;57.73;;;37.73;;
14858;SDS011;7521;51.700;6.874;2023-04-07T03:00:51;58.40;;;37.65;;
14858;SDS011;7521;51.700;6.874;2023-04-07T03:03:57;62.28;;;39.70;;
14858;SDS011;7521;51.700;6.874;2023-04-07T03:07:02;59.97;;;39.63;;
14858;SDS011;7521;51.700;6.874;2023-04-07T03:10:07;64.03;;;41.45;;
14858;SDS011;7521;51.700;6.874;2023-04-07T03:13:12;62.53;;;40.40;;
14858;SDS011;7521;51.700;6.874;2023-04-07T03:16:20;68.70;;;42.47;;
14858;SDS011;7521;51.700;6.874;2023-04-07T03:19:25;64.40;;;42.40;;
14858;SDS011;7521;51.700;6.874;2023-04-07T03:22:31;64.37;;;42.47;;
14858;SDS011;7521;51.700;6.874;2023-04-07T03:25:36;63.95;;;41.35;;
14858;SDS011;7521;51.700;6.874;2023-04-07T03:28:41;68.88;;;43.40;;
14858;SDS011;7521;51.700;6.874;2023-04-07T03:31:46;72.73;;;42.87;;
14858;SDS011;7521;51.700;6.874;2023-04-07T03:34:52;73.17;;;43.47;;
14858;SDS011;7521;51.700;6.874;2023-04-07T03:37:57;77.30;;;44.15;;
14858;SDS011;7521;51.700;6.874;2023-04-07T03:41:02;75.97;;;44.25;;
14858;SDS011;7521;51.700;6.874;2023-04-07T03:44:07;71.80;;;42.95;;
14858;SDS011;7521;51.700;6.874;2023-04-07T03:47:12;65.20;;;41.37;;
14858;SDS011;7521;51.700;6.874;2023-04-07T03:50:17;71.28;;;43.80;;
14858;SDS011;7521;51.700;6.874;2023-04-07T03:53:23;64.30;;;41.88;;
14858;SDS011;7521;51.700;6.874;2023-04-07T03:56:28;60.30;;;39.75;;
14858;SDS011;7521;51.700;6.874;2023-04-07T03:59:33;58.80;;;40.05;;
14858;SDS011;7521;51.700;6.874;2023-04-07T04:02:38;55.47;;;36.90;;
14858;SDS011;7521;51.700;6.874;2023-04-07T04:05:43;62.83;;;40.33;;
14858;SDS011;7521;51.700;6.874;2023-04-07T04:08:48;61.47;;;38.27;;
14858;SDS011;7521;51.700;6.874;2023-04-07T04:11:54;60.97;;;38.80;;
14858;SDS011;7521;51.700;6.874;2023-04-07T04:15:00;64.20;;;39.17;;
14858;SDS011;7521;51.700;6.874;2023-04-07T04:18:05;61.97;;;38.78;;
14858;SDS011;7521;51.700;6.874;2023-04-07T04:21:10;66.82;;;39.67;;
14858;SDS011;7521;51.700;6.874;2023-04-07T04:24:15;67.75;;;38.20;;
14858;SDS011;7521;51.700;6.874;2023-04-07T04:27:20;65.75;;;36.15;;
14858;SDS011;7521;51.700;6.874;2023-04-07T04:30:26;63.97;;;34.87;;
14858;SDS011;7521;51.700;6.874;2023-04-07T04:33:31;47.23;;;28.43;;
14858;SDS011;7521;51.700;6.874;2023-04-07T04:36:36;43.33;;;27.63;;
14858;SDS011;7521;51.700;6.874;2023-04-07T04:39:42;43.90;;;27.07;;
14858;SDS011;7521;51.700;6.874;2023-04-07T04:42:48;38.77;;;24.57;;
14858;SDS011;7521;51.700;6.874;2023-04-07T04:45:53;44.53;;;24.55;;
14858;SDS011;7521;51.700;6.874;2023-04-07T04:48:58;37.93;;;23.97;;
14858;SDS011;7521;51.700;6.874;2023-04-07T04:52:03;43.38;;;25.17;;
14858;SDS011;7521;51.700;6.874;2023-04-07T04:55:09;35.67;;;23.03;;
14858;SDS011;7521;51.700;6.874;2023-04-07T04:58:14;38.43;;;23.90;;
14858;SDS011;7521;51.700;6.874;2023-04-07T05:01:20;37.17;;;23.37;;
14858;SDS011;7521;51.700;6.874;2023-04-07T05:04:25;33.37;;;22.17;;
14858;SDS011;7521;51.700;6.874;2023-04-07T05:07:32;33.93;;;22.00;;
14858;SDS011;7521;51.700;6.874;2023-04-07T05:10:37;28.67;;;19.60;;
14858;SDS011;7521;51.700;6.874;2023-04-07T05:13:44;29.17;;;19.27;;
14858;SDS011;7521;51.700;6.874;2023-04-07T05:16:49;26.02;;;17.67;;
14858;SDS011;7521;51.700;6.874;2023-04-07T05:19:54;28.57;;;17.90;;
14858;SDS011;7521;51.700;6.874;2023-04-07T05:22:59;24.87;;;17.63;;
14858;SDS011;7521;51.700;6.874;2023-04-07T05:26:04;24.45;;;16.35;;
14858;SDS011;7521;51.700;6.874;2023-04-07T05:29:10;26.63;;;17.63;;
14858;SDS011;7521;51.700;6.874;2023-04-07T05:32:15;24.83;;;16.85;;
14858;SDS011;7521;51.700;6.874;2023-04-07T05:35:21;23.40;;;16.50;;
14858;SDS011;7521;51.700;6.874;2023-04-07T05:38:26;26.50;;;16.37;;
14858;SDS011;7521;51.700;6.874;2023-04-07T05:41:31;22.80;;;16.20;;
14858;SDS011;7521;51.700;6.874;2023-04-07T05:44:40;26.17;;;16.03;;
14858;SDS011;7521;51.700;6.874;2023-04-07T05:47:45;24.33;;;16.17;;
14858;SDS011;7521;51.700;6.874;2023-04-07T05:50:53;24.67;;;16.50;;
14858;SDS011;7521;51.700;6.874;2023-04-07T05:54:00;23.37;;;16.37;;
14858;SDS011;7521;51.700;6.874;2023-04-07T05:57:06;22.43;;;16.00;;
14858;SDS011;7521;51.700;6.874;2023-04-07T06:00:12;26.27;;;16.60;;
14858;SDS011;7521;51.700;6.874;2023-04-07T06:03:17;24.07;;;16.33;;
14858;SDS011;7521;51.700;6.874;2023-04-07T06:06:22;22.25;;;15.07;;
14858;SDS011;7521;51.700;6.874;2023-04-07T06:09:27;20.77;;;13.05;;
14858;SDS011;7521;51.700;6.874;2023-04-07T06:12:33;19.05;;;12.82;;
14858;SDS011;7521;51.700;6.874;2023-04-07T06:15:38;19.45;;;11.70;;
14858;SDS011;7521;51.700;6.874;2023-04-07T06:18:43;20.77;;;12.37;;
14858;SDS011;7521;51.700;6.874;2023-04-07T06:21:48;23.17;;;12.53;;
14858;SDS011;7521;51.700;6.874;2023-04-07T06:24:54;17.33;;;10.60;;
14858;SDS011;7521;51.700;6.874;2023-04-07T06:27:59;18.70;;;11.73;;
14858;SDS011;7521;51.700;6.874;2023-04-07T06:31:05;17.60;;;10.70;;
14858;SDS011;7521;51.700;6.874;2023-04-07T06:34:11;18.13;;;10.90;;
14858;SDS011;7521;51.700;6.874;2023-04-07T06:37:16;19.38;;;11.13;;
14858;SDS011;7521;51.700;6.874;2023-04-07T06:40:22;17.90;;;10.90;;
14858;SDS011;7521;51.700;6.874;2023-04-07T06:43:27;18.33;;;11.40;;
14858;SDS011;7521;51.700;6.874;2023-04-07T06:46:32;19.17;;;10.87;;
14858;SDS011;7521;51.700;6.874;2023-04-07T06:49:37;21.02;;;10.70;;
14858;SDS011;7521;51.700;6.874;2023-04-07T06:52:42;24.30;;;12.20;;
14858;SDS011;7521;51.700;6.874;2023-04-07T06:55:48;27.17;;;12.23;;
14858;SDS011;7521;51.700;6.874;2023-04-07T06:58:53;23.60;;;12.05;;
14858;SDS011;7521;51.700;6.874;2023-04-07T07:01:58;21.57;;;11.53;;
14858;SDS011;7521;51.700;6.874;2023-04-07T07:05:03;23.60;;;10.93;;
14858;SDS011;7521;51.700;6.874;2023-04-07T07:08:08;22.17;;;11.13;;
14858;SDS011;7521;51.700;6.874;2023-04-07T07:11:14;21.67;;;10.83;;
14858;SDS011;7521;51.700;6.874;2023-04-07T07:14:19;22.97;;;11.40;;
14858;SDS011;7521;51.700;6.874;2023-04-07T07:17:24;19.57;;;11.57;;
14858;SDS011;7521;51.700;6.874;2023-04-07T07:20:30;21.17;;;12.63;;
14858;SDS011;7521;51.700;6.874;2023-04-07T07:23:36;24.67;;;12.43;;
14858;SDS011;7521;51.700;6.874;2023-04-07T07:26:41;24.02;;;12.55;;
14858;SDS011;7521;51.700;6.874;2023-04-07T07:48:07;20.23;;;12.73;;
14858;SDS011;7521;51.700;6.874;2023-04-07T07:51:13;25.63;;;15.63;;
14858;SDS011;7521;51.700;6.874;2023-04-07T07:54:18;27.98;;;16.65;;
14858;SDS011;7521;51.700;6.874;2023-04-07T07:57:23;29.00;;;18.00;;
14858;SDS011;7521;51.700;6.874;2023-04-07T08:00:28;27.33;;;17.90;;
14858;SDS011;7521;51.700;6.874;2023-04-07T08:03:33;33.22;;;18.30;;
14858;SDS011;7521;51.700;6.874;2023-04-07T08:06:38;29.77;;;17.03;;
14858;SDS011;7521;51.700;6.874;2023-04-07T08:09:44;28.43;;;15.60;;
14858;SDS011;7521;51.700;6.874;2023-04-07T08:12:50;23.67;;;14.65;;
14858;SDS011;7521;51.700;6.874;2023-04-07T08:15:55;17.70;;;13.23;;
14858;SDS011;7521;51.700;6.874;2023-04-07T08:19:00;20.23;;;13.38;;
14858;SDS011;7521;51.700;6.874;2023-04-07T08:22:05;22.47;;;13.03;;
14858;SDS011;7521;51.700;6.874;2023-04-07T08:25:10;17.30;;;11.18;;
14858;SDS011;7521;51.700;6.874;2023-04-07T08:28:16;23.50;;;14.17;;
14858;SDS011;7521;51.700;6.874;2023-04-07T08:31:21;40.75;;;21.98;;
14858;SDS011;7521;51.700;6.874;2023-04-07T08:34:26;17.93;;;11.53;;
14858;SDS011;7521;51.700;6.874;2023-04-07T08:37:31;19.20;;;12.23;;
14858;SDS011;7521;51.700;6.874;2023-04-07T08:40:37;16.23;;;10.70;;
14858;SDS011;7521;51.700;6.874;2023-04-07T08:43:42;23.67;;;14.73;;
14858;SDS011;7521;51.700;6.874;2023-04-07T08:46:48;22.47;;;15.53;;
14858;SDS011;7521;51.700;6.874;2023-04-07T08:49:56;27.43;;;19.03;;
14858;SDS011;7521;51.700;6.874;2023-04-07T08:53:01;28.93;;;16.23;;
14858;SDS011;7521;51.700;6.874;2023-04-07T08:56:12;22.33;;;14.57;;
14858;SDS011;7521;51.700;6.874;2023-04-07T08:59:17;18.33;;;11.53;;
14858;SDS011;7521;51.700;6.874;2023-04-07T09:02:22;16.07;;;11.23;;
14858;SDS011;7521;51.700;6.874;2023-04-07T09:05:27;16.20;;;9.23;;
14858;SDS011;7521;51.700;6.874;2023-04-07T09:08:33;13.33;;;8.50;;
14858;SDS011;7521;51.700;6.874;2023-04-07T09:11:39;13.18;;;8.77;;
14858;SDS011;7521;51.700;6.874;2023-04-07T09:14:44;14.40;;;8.57;;
14858;SDS011;7521;51.700;6.874;2023-04-07T09:17:50;11.43;;;8.02;;
14858;SDS011;7521;51.700;6.874;2023-04-07T09:20:59;12.32;;;7.90;;
14858;SDS011;7521;51.700;6.874;2023-04-07T09:24:19;9.40;;;6.83;;
14858;SDS011;7521;51.700;6.874;2023-04-07T09:27:24;10.43;;;7.53;;
14858;SDS011;7521;51.700;6.874;2023-04-07T09:30:30;11.52;;;8.00;;
14858;SDS011;7521;51.700;6.874;2023-04-07T09:33:35;9.90;;;7.30;;
14858;SDS011;7521;51.700;6.874;2023-04-07T09:36:40;9.70;;;7.03;;
14858;SDS011;7521;51.700;6.874;2023-04-07T09:39:49;10.47;;;7.83;;
14858;SDS011;7521;51.700;6.874;2023-04-07T09:42:55;10.80;;;8.33;;
14858;SDS011;7521;51.700;6.874;2023-04-07T09:46:15;11.90;;;7.33;;
14858;SDS011;7521;51.700;6.874;2023-04-07T09:49:21;8.77;;;6.83;;
14858;SDS011;7521;51.700;6.874;2023-04-07T09:55:51;7.27;;;5.63;;
14858;SDS011;7521;51.700;6.874;2023-04-07T09:58:56;11.00;;;6.53;;
14858;SDS011;7521;51.700;6.874;2023-04-07T10:02:02;8.70;;;6.20;;
14858;SDS011;7521;51.700;6.874;2023-04-07T10:05:08;9.43;;;6.60;;
14858;SDS011;7521;51.700;6.874;2023-04-07T10:08:14;15.73;;;10.37;;
14858;SDS011;7521;51.700;6.874;2023-04-07T10:11:19;22.17;;;15.73;;
14858;SDS011;7521;51.700;6.874;2023-04-07T10:14:26;27.53;;;16.90;;
14858;SDS011;7521;51.700;6.874;2023-04-07T10:17:31;23.13;;;16.63;;
14858;SDS011;7521;51.700;6.874;2023-04-07T10:20:40;23.13;;;16.23;;
14858;SDS011;7521;51.700;6.874;2023-04-07T10:26:55;8.93;;;7.03;;
14858;SDS011;7521;51.700;6.874;2023-04-07T10:30:00;10.87;;;7.20;;
14858;SDS011;7521;51.700;6.874;2023-04-07T10:33:08;9.93;;;6.63;;
14858;SDS011;7521;51.700;6.874;2023-04-07T10:36:13;10.13;;;7.13;;
14858;SDS011;7521;51.700;6.874;2023-04-07T10:39:19;9.80;;;7.03;;
14858;SDS011;7521;51.700;6.874;2023-04-07T10:49:07;10.77;;;7.43;;
14858;SDS011;7521;51.700;6.874;2023-04-07T10:55:28;10.70;;;7.70;;
14858;SDS011;7521;51.700;6.874;2023-04-07T10:58:34;11.73;;;8.53;;
14858;SDS011;7521;51.700;6.874;2023-04-07T11:01:41;11.10;;;7.47;;
14858;SDS011;7521;51.700;6.874;2023-04-07T11:04:46;10.27;;;6.97;;
14858;SDS011;7521;51.700;6.874;2023-04-07T11:07:52;16.60;;;9.70;;
14858;SDS011;7521;51.700;6.874;2023-04-07T11:10:59;34.50;;;17.67;;
14858;SDS011;7521;51.700;6.874;2023-04-07T11:14:04;11.53;;;7.23;;
14858;SDS011;7521;51.700;6.874;2023-04-07T11:17:13;12.43;;;7.47;;
14858;SDS011;7521;51.700;6.874;2023-04-07T11:20:18;9.87;;;7.07;;
14858;SDS011;7521;51.700;6.874;2023-04-07T11:23:23;15.27;;;10.93;;
14858;SDS011;7521;51.700;6.874;2023-04-07T11:26:41;12.20;;;7.00;;
14858;SDS011;7521;51.700;6.874;2023-04-07T11:29:46;9.87;;;7.60;;
14858;SDS011;7521;51.700;6.874;2023-04-07T11:32:51;9.87;;;7.50;;
14858;SDS011;7521;51.700;6.874;2023-04-07T11:35:58;24.23;;;15.63;;
14858;SDS011;7521;51.700;6.874;2023-04-07T11:39:03;9.43;;;7.80;;
14858;SDS011;7521;51.700;6.874;2023-04-07T11:42:08;9.83;;;7.20;;
14858;SDS011;7521;51.700;6.874;2023-04-07T11:45:15;9.90;;;7.57;;
14858;SDS011;7521;51.700;6.874;2023-04-07T11:48:30;10.50;;;7.13;;
14858;SDS011;7521;51.700;6.874;2023-04-07T11:51:35;7.27;;;5.87;;
14858;SDS011;7521;51.700;6.874;2023-04-07T11:54:41;9.07;;;6.43;;
14858;SDS011;7521;51.700;6.874;2023-04-07T11:57:46;7.43;;;5.10;;
14858;SDS011;7521;51.700;6.874;2023-04-07T12:00:55;5.73;;;4.70;;
14858;SDS011;7521;51.700;6.874;2023-04-07T12:04:01;4.20;;;3.70;;
14858;SDS011;7521;51.700;6.874;2023-04-07T12:07:08;6.17;;;3.73;;
14858;SDS011;7521;51.700;6.874;2023-04-07T12:10:22;4.73;;;4.23;;
14858;SDS011;7521;51.700;6.874;2023-04-07T12:13:29;5.93;;;5.33;;
14858;SDS011;7521;51.700;6.874;2023-04-07T12:16:36;7.63;;;6.83;;
14858;SDS011;7521;51.700;6.874;2023-04-07T12:19:42;7.90;;;7.10;;
14858;SDS011;7521;51.700;6.874;2023-04-07T12:22:47;7.80;;;7.00;;
14858;SDS011;7521;51.700;6.874;2023-04-07T12:25:52;8.73;;;7.72;;
14858;SDS011;7521;51.700;6.874;2023-04-07T12:28:57;8.50;;;7.70;;
14858;SDS011;7521;51.700;6.874;2023-04-07T12:32:08;9.30;;;7.90;;
14858;SDS011;7521;51.700;6.874;2023-04-07T12:35:14;8.37;;;7.43;;
14858;SDS011;7521;51.700;6.874;2023-04-07T12:38:19;8.17;;;7.27;;
14858;SDS011;7521;51.700;6.874;2023-04-07T12:41:24;8.77;;;7.50;;
14858;SDS011;7521;51.700;6.874;2023-04-07T12:44:30;9.97;;;7.30;;
14858;SDS011;7521;51.700;6.874;2023-04-07T12:47:35;8.15;;;7.35;;
14858;SDS011;7521;51.700;6.874;2023-04-07T12:50:40;9.07;;;7.32;;
14858;SDS011;7521;51.700;6.874;2023-04-07T12:53:46;7.67;;;6.67;;
14858;SDS011;7521;51.700;6.874;2023-04-07T12:56:52;6.87;;;6.17;;
14858;SDS011;7521;51.700;6.874;2023-04-07T12:59:57;6.85;;;6.20;;
14858;SDS011;7521;51.700;6.874;2023-04-07T13:03:02;7.23;;;6.53;;
14858;SDS011;7521;51.700;6.874;2023-04-07T13:06:08;7.30;;;6.60;;
14858;SDS011;7521;51.700;6.874;2023-04-07T13:09:14;6.93;;;6.23;;
14858;SDS011;7521;51.700;6.874;2023-04-07T13:12:20;7.07;;;6.37;;
14858;SDS011;7521;51.700;6.874;2023-04-07T13:15:25;7.30;;;6.60;;
14858;SDS011;7521;51.700;6.874;2023-04-07T13:18:32;6.63;;;5.60;;
14858;SDS011;7521;51.700;6.874;2023-04-07T13:21:37;6.93;;;6.07;;
14858;SDS011;7521;51.700;6.874;2023-04-07T13:24:42;7.55;;;6.45;;
14858;SDS011;7521;51.700;6.874;2023-04-07T13:27:47;7.57;;;6.23;;
14858;SDS011;7521;51.700;6.874;2023-04-07T13:30:53;7.15;;;6.45;;
14858;SDS011;7521;51.700;6.874;2023-04-07T13:33:58;6.57;;;5.75;;
14858;SDS011;7521;51.700;6.874;2023-04-07T13:37:03;8.18;;;5.75;;
14858;SDS011;7521;51.700;6.874;2023-04-07T13:40:09;6.13;;;5.33;;
14858;SDS011;7521;51.700;6.874;2023-04-07T13:43:15;7.90;;;6.40;;
14858;SDS011;7521;51.700;6.874;2023-04-07T13:46:22;5.33;;;4.67;;
14858;SDS011;7521;51.700;6.874;2023-04-07T13:49:28;6.13;;;4.93;;
14858;SDS011;7521;51.700;6.874;2023-04-07T13:52:33;5.63;;;5.03;;
14858;SDS011;7521;51.700;6.874;2023-04-07T13:55:41;5.50;;;5.00;;
14858;SDS011;7521;51.700;6.874;2023-04-07T13:58:46;5.32;;;4.82;;
14858;SDS011;7521;51.700;6.874;2023-04-07T14:01:54;5.13;;;4.63;;
14858;SDS011;7521;51.700;6.874;2023-04-07T14:05:02;6.20;;;5.50;;
14858;SDS011;7521;51.700;6.874;2023-04-07T14:08:07;4.60;;;4.20;;
14858;SDS011;7521;51.700;6.874;2023-04-07T14:11:16;5.40;;;4.90;;
14858;SDS011;7521;51.700;6.874;2023-04-07T14:14:22;5.90;;;5.30;;
14858;SDS011;7521;51.700;6.874;2023-04-07T14:17:28;6.03;;;4.37;;
14858;SDS011;7521;51.700;6.874;2023-04-07T14:20:33;5.03;;;4.57;;
14858;SDS011;7521;51.700;6.874;2023-04-07T14:23:38;4.70;;;4.30;;
14858;SDS011;7521;51.700;6.874;2023-04-07T14:26:44;4.70;;;4.30;;
14858;SDS011;7521;51.700;6.874;2023-04-07T14:29:50;5.27;;;4.77;;
14858;SDS011;7521;51.700;6.874;2023-04-07T14:32:55;5.23;;;4.73;;
14858;SDS011;7521;51.700;6.874;2023-04-07T14:36:00;5.27;;;4.77;;
14858;SDS011;7521;51.700;6.874;2023-04-07T14:39:06;5.33;;;4.83;;
14858;SDS011;7521;51.700;6.874;2023-04-07T14:42:12;4.90;;;4.50;;
14858;SDS011;7521;51.700;6.874;2023-04-07T14:45:18;5.30;;;4.90;;
14858;SDS011;7521;51.700;6.874;2023-04-07T14:48:23;5.47;;;4.97;;
14858;SDS011;7521;51.700;6.874;2023-04-07T14:51:28;6.10;;;5.50;;
14858;SDS011;7521;51.700;6.874;2023-04-07T14:54:34;5.60;;;5.10;;
14858;SDS011;7521;51.700;6.874;2023-04-07T14:57:39;5.90;;;5.40;;
14858;SDS011;7521;51.700;6.874;2023-04-07T15:00:44;6.57;;;5.97;;
14858;SDS011;7521;51.700;6.874;2023-04-07T15:03:50;6.00;;;5.50;;
14858;SDS011;7521;51.700;6.874;2023-04-07T15:06:55;6.47;;;5.87;;
14858;SDS011;7521;51.700;6.874;2023-04-07T15:10:00;6.33;;;5.80;;
14858;SDS011;7521;51.700;6.874;2023-04-07T15:13:05;6.60;;;5.93;;
14858;SDS011;7521;51.700;6.874;2023-04-07T15:16:11;6.70;;;6.10;;
14858;SDS011;7521;51.700;6.874;2023-04-07T15:19:17;7.40;;;6.70;;
14858;SDS011;7521;51.700;6.874;2023-04-07T15:22:22;7.03;;;6.43;;
14858;SDS011;7521;51.700;6.874;2023-04-07T15:25:27;7.17;;;6.57;;
14858;SDS011;7521;51.700;6.874;2023-04-07T15:28:33;7.20;;;6.50;;
14858;SDS011;7521;51.700;6.874;2023-04-07T15:31:38;6.90;;;6.30;;
14858;SDS011;7521;51.700;6.874;2023-04-07T15:34:43;7.07;;;6.47;;
14858;SDS011;7521;51.700;6.874;2023-04-07T15:37:48;7.13;;;6.53;;
14858;SDS011;7521;51.700;6.874;2023-04-07T15:40:53;7.30;;;6.60;;
14858;SDS011;7521;51.700;6.874;2023-04-07T15:43:59;7.70;;;6.90;;
14858;SDS011;7521;51.700;6.874;2023-04-07T15:47:05;7.37;;;6.77;;
14858;SDS011;7521;51.700;6.874;2023-04-07T15:50:10;6.53;;;5.97;;
14858;SDS011;7521;51.700;6.874;2023-04-07T15:53:15;7.90;;;7.20;;
14858;SDS011;7521;51.700;6.874;2023-04-07T15:56:20;8.43;;;7.45;;
14858;SDS011;7521;51.700;6.874;2023-04-07T15:59:28;8.70;;;7.93;;
14858;SDS011;7521;51.700;6.874;2023-04-07T16:02:34;9.67;;;8.77;;
14858;SDS011;7521;51.700;6.874;2023-04-07T16:05:39;8.98;;;8.07;;
14858;SDS011;7521;51.700;6.874;2023-04-07T16:08:45;8.57;;;7.88;;
14858;SDS011;7521;51.700;6.874;2023-04-07T16:11:50;10.25;;;9.23;;
14858;SDS011;7521;51.700;6.874;2023-04-07T16:14:55;8.57;;;7.78;;
14858;SDS011;7521;51.700;6.874;2023-04-07T16:18:03;7.80;;;7.10;;
14858;SDS011;7521;51.700;6.874;2023-04-07T16:21:08;8.33;;;7.53;;
14858;SDS011;7521;51.700;6.874;2023-04-07T16:24:13;8.00;;;7.30;;
14858;SDS011;7521;51.700;6.874;2023-04-07T16:27:19;8.63;;;7.83;;
14858;SDS011;7521;51.700;6.874;2023-04-07T16:30:24;8.18;;;7.38;;
14858;SDS011;7521;51.700;6.874;2023-04-07T16:33:29;8.20;;;7.40;;
14858;SDS011;7521;51.700;6.874;2023-04-07T16:36:34;8.60;;;7.80;;
14858;SDS011;7521;51.700;6.874;2023-04-07T16:39:40;8.53;;;7.63;;
14858;SDS011;7521;51.700;6.874;2023-04-07T16:42:45;8.48;;;7.68;;
14858;SDS011;7521;51.700;6.874;2023-04-07T16:45:51;8.07;;;7.37;;
14858;SDS011;7521;51.700;6.874;2023-04-07T16:48:56;8.02;;;7.22;;
14858;SDS011;7521;51.700;6.874;2023-04-07T16:52:01;7.90;;;7.20;;
14858;SDS011;7521;51.700;6.874;2023-04-07T16:55:06;7.90;;;7.20;;
14858;SDS011;7521;51.700;6.874;2023-04-07T16:58:12;7.33;;;6.63;;
14858;SDS011;7521;51.700;6.874;2023-04-07T17:01:17;8.20;;;7.40;;
14858;SDS011;7521;51.700;6.874;2023-04-07T17:04:22;7.93;;;7.23;;
14858;SDS011;7521;51.700;6.874;2023-04-07T17:07:27;7.73;;;7.03;;
14858;SDS011;7521;51.700;6.874;2023-04-07T17:10:33;7.87;;;7.07;;
14858;SDS011;7521;51.700;6.874;2023-04-07T17:13:38;8.45;;;7.65;;
14858;SDS011;7521;51.700;6.874;2023-04-07T17:16:44;8.63;;;7.83;;
14858;SDS011;7521;51.700;6.874;2023-04-07T17:19:49;8.27;;;7.57;;
14858;SDS011;7521;51.700;6.874;2023-04-07T17:22:54;7.97;;;7.27;;
14858;SDS011;7521;51.700;6.874;2023-04-07T17:25:59;7.50;;;6.80;;
14858;SDS011;7521;51.700;6.874;2023-04-07T17:29:05;7.73;;;7.03;;
14858;SDS011;7521;51.700;6.874;2023-04-07T17:32:10;7.33;;;6.73;;
14858;SDS011;7521;51.700;6.874;2023-04-07T17:35:15;8.60;;;7.80;;
14858;SDS011;7521;51.700;6.874;2023-04-07T17:38:20;8.07;;;7.37;;
14858;SDS011;7521;51.700;6.874;2023-04-07T17:41:25;9.07;;;8.23;;
14858;SDS011;7521;51.700;6.874;2023-04-07T17:44:31;9.30;;;8.33;;
14858;SDS011;7521;51.700;6.874;2023-04-07T17:47:38;10.87;;;9.20;;
14858;SDS011;7521;51.700;6.874;2023-04-07T17:50:43;9.83;;;8.53;;
14858;SDS011;7521;51.700;6.874;2023-04-07T17:53:50;9.17;;;8.37;;
14858;SDS011;7521;51.700;6.874;2023-04-07T17:56:55;8.57;;;7.60;;
14858;SDS011;7521;51.700;6.874;2023-04-07T18:00:02;8.87;;;8.00;;
14858;SDS011;7521;51.700;6.874;2023-04-07T18:03:08;10.30;;;8.50;;
14858;SDS011;7521;51.700;6.874;2023-04-07T18:06:15;9.23;;;8.43;;
14858;SDS011;7521;51.700;6.874;2023-04-07T18:09:20;10.87;;;9.43;;
14858;SDS011;7521;51.700;6.874;2023-04-07T18:12:26;25.80;;;16.30;;
14858;SDS011;7521;51.700;6.874;2023-04-07T18:15:31;12.23;;;10.93;;
14858;SDS011;7521;51.700;6.874;2023-04-07T18:18:37;14.50;;;11.60;;
14858;SDS011;7521;51.700;6.874;2023-04-07T18:21:42;15.70;;;14.10;;
14858;SDS011;7521;51.700;6.874;2023-04-07T18:24:47;19.60;;;17.10;;
14858;SDS011;7521;51.700;6.874;2023-04-07T18:27:52;14.90;;;13.35;;
14858;SDS011;7521;51.700;6.874;2023-04-07T18:30:58;13.20;;;11.90;;
14858;SDS011;7521;51.700;6.874;2023-04-07T18:34:03;11.00;;;9.90;;
14858;SDS011;7521;51.700;6.874;2023-04-07T18:37:08;10.47;;;9.47;;
14858;SDS011;7521;51.700;6.874;2023-04-07T18:40:13;10.35;;;9.35;;
14858;SDS011;7521;51.700;6.874;2023-04-07T18:43:20;11.30;;;10.23;;
14858;SDS011;7521;51.700;6.874;2023-04-07T18:46:25;11.43;;;10.33;;
14858;SDS011;7521;51.700;6.874;2023-04-07T18:49:31;10.93;;;9.87;;
14858;SDS011;7521;51.700;6.874;2023-04-07T18:52:37;10.90;;;9.80;;
14858;SDS011;7521;51.700;6.874;2023-04-07T18:55:42;11.02;;;9.82;;
14858;SDS011;7521;51.700;6.874;2023-04-07T18:58:47;10.47;;;9.53;;
14858;SDS011;7521;51.700;6.874;2023-04-07T19:01:53;13.70;;;9.83;;
14858;SDS011;7521;51.700;6.874;2023-04-07T19:04:58;10.00;;;9.10;;
14858;SDS011;7521;51.700;6.874;2023-04-07T19:08:04;10.50;;;9.40;;
14858;SDS011;7521;51.700;6.874;2023-04-07T19:11:09;11.17;;;10.00;;
14858;SDS011;7521;51.700;6.874;2023-04-07T19:14:14;10.23;;;9.23;;